Cloverdale, Oregon
Current Conditions -  °F | °C
As of 6:55 PM on Saturday 25 Oct 2014 (Local Time) from KTMK Reporting Station
Light Rain Light Rain  
Wind Chill: 55°   Ceiling: 4700
Heat Index: 55°   Visibility: 10mi
Dew Point: 52°   Wind: 13mph
Humidity: 88%   Direction: 240°WSW
Pressure: 29.72"   Gusts: 20mph
Location:  45.21°N, 123.89°W
Report Text: KTMK 260155Z AUTO 24011G17KT 10SM -RA SCT033 BKN047 OVC120 13/11 A2972 RMK AO2 P0005
Loading
Personal Weather Stations






























Interactive Weather Map
Tropical Storm Tracking
New forecast layout! Learn more

10-Day Weather Forecast

Advertisements
Track Severe Weather on mobile